sensor_id;sensor_type;location;lat;lon;timestamp;P1;durP1;ratioP1;P2;durP2;ratioP2
21569;SDS011;57598;50.888;4.746;2023-04-01T07:11:35;114.88;;;105.47;;
21569;SDS011;57598;50.888;4.746;2023-04-01T07:14:06;143.73;;;132.65;;
21569;SDS011;57598;50.888;4.746;2023-04-01T07:16:43;167.00;;;154.27;;
21569;SDS011;57598;50.888;4.746;2023-04-01T07:22:57;171.07;;;157.75;;
21569;SDS011;57598;50.888;4.746;2023-04-01T07:25:29;177.25;;;164.10;;
21569;SDS011;57598;50.888;4.746;2023-04-01T08:02:20;199.48;;;185.63;;
21569;SDS011;57598;50.888;4.746;2023-04-01T08:05:00;201.25;;;187.43;;
21569;SDS011;57598;50.888;4.746;2023-04-01T08:07:35;187.13;;;174.05;;
21569;SDS011;57598;50.888;4.746;2023-04-01T08:10:09;176.88;;;164.48;;
21569;SDS011;57598;50.888;4.746;2023-04-01T08:12:45;159.73;;;148.13;;
21569;SDS011;57598;50.888;4.746;2023-04-01T08:15:19;149.20;;;138.15;;
21569;SDS011;57598;50.888;4.746;2023-04-01T08:17:57;134.20;;;124.00;;
21569;SDS011;57598;50.888;4.746;2023-04-01T08:20:32;135.40;;;125.10;;
21569;SDS011;57598;50.888;4.746;2023-04-01T08:23:05;128.25;;;118.55;;
21569;SDS011;57598;50.888;4.746;2023-04-01T08:25:37;127.70;;;117.90;;
21569;SDS011;57598;50.888;4.746;2023-04-01T08:28:09;122.10;;;112.60;;
21569;SDS011;57598;50.888;4.746;2023-04-01T08:30:41;122.93;;;113.40;;
21569;SDS011;57598;50.888;4.746;2023-04-01T08:33:15;121.65;;;112.07;;
21569;SDS011;57598;50.888;4.746;2023-04-01T08:35:46;114.53;;;105.53;;
21569;SDS011;57598;50.888;4.746;2023-04-01T08:38:17;114.93;;;105.88;;
21569;SDS011;57598;50.888;4.746;2023-04-01T08:40:55;112.90;;;103.90;;
21569;SDS011;57598;50.888;4.746;2023-04-01T08:46:39;116.80;;;107.60;;
21569;SDS011;57598;50.888;4.746;2023-04-01T08:50:04;112.45;;;103.40;;
21569;SDS011;57598;50.888;4.746;2023-04-01T08:52:50;113.47;;;104.27;;
21569;SDS011;57598;50.888;4.746;2023-04-01T08:55:30;112.95;;;103.70;;
21569;SDS011;57598;50.888;4.746;2023-04-01T08:58:13;119.03;;;109.32;;
21569;SDS011;57598;50.888;4.746;2023-04-01T09:00:55;124.15;;;114.20;;
21569;SDS011;57598;50.888;4.746;2023-04-01T09:03:35;126.53;;;116.63;;
21569;SDS011;57598;50.888;4.746;2023-04-01T09:06:28;117.13;;;107.20;;
21569;SDS011;57598;50.888;4.746;2023-04-01T09:09:21;117.05;;;107.30;;
21569;SDS011;57598;50.888;4.746;2023-04-01T09:12:26;115.38;;;105.90;;
21569;SDS011;57598;50.888;4.746;2023-04-01T09:15:19;111.55;;;102.30;;
21569;SDS011;57598;50.888;4.746;2023-04-01T09:18:32;111.47;;;102.28;;
21569;SDS011;57598;50.888;4.746;2023-04-01T09:21:31;108.68;;;99.78;;
21569;SDS011;57598;50.888;4.746;2023-04-01T09:24:12;121.13;;;111.13;;
21569;SDS011;57598;50.888;4.746;2023-04-01T09:27:03;113.15;;;103.65;;
21569;SDS011;57598;50.888;4.746;2023-04-01T09:29:40;113.45;;;103.72;;
21569;SDS011;57598;50.888;4.746;2023-04-01T09:32:42;115.63;;;106.07;;
21569;SDS011;57598;50.888;4.746;2023-04-01T09:35:32;117.18;;;107.43;;
21569;SDS011;57598;50.888;4.746;2023-04-01T09:38:11;111.85;;;102.47;;
21569;SDS011;57598;50.888;4.746;2023-04-01T09:40:52;120.05;;;110.30;;
21569;SDS011;57598;50.888;4.746;2023-04-01T09:43:25;118.18;;;108.57;;
21569;SDS011;57598;50.888;4.746;2023-04-01T09:45:58;118.70;;;109.00;;
21569;SDS011;57598;50.888;4.746;2023-04-01T09:51:40;143.77;;;132.98;;
21569;SDS011;57598;50.888;4.746;2023-04-01T09:54:31;152.20;;;140.60;;
21569;SDS011;57598;50.888;4.746;2023-04-01T10:06:25;140.38;;;129.48;;
21569;SDS011;57598;50.888;4.746;2023-04-01T10:15:45;136.20;;;125.50;;
21569;SDS011;57598;50.888;4.746;2023-04-01T10:18:36;132.98;;;122.47;;
21569;SDS011;57598;50.888;4.746;2023-04-01T10:28:00;137.15;;;126.72;;
21569;SDS011;57598;50.888;4.746;2023-04-01T10:30:57;140.43;;;129.82;;
21569;SDS011;57598;50.888;4.746;2023-04-01T10:34:13;124.82;;;115.18;;
21569;SDS011;57598;50.888;4.746;2023-04-01T10:37:03;117.03;;;107.75;;
21569;SDS011;57598;50.888;4.746;2023-04-01T10:49:28;138.23;;;127.47;;
21569;SDS011;57598;50.888;4.746;2023-04-01T10:58:53;140.93;;;130.27;;
21569;SDS011;57598;50.888;4.746;2023-04-01T11:01:53;150.75;;;139.80;;
21569;SDS011;57598;50.888;4.746;2023-04-01T11:04:57;149.75;;;139.15;;
21569;SDS011;57598;50.888;4.746;2023-04-01T11:08:02;145.65;;;135.05;;
21569;SDS011;57598;50.888;4.746;2023-04-01T11:14:28;130.88;;;121.35;;
21569;SDS011;57598;50.888;4.746;2023-04-01T11:23:57;87.47;;;79.97;;
21569;SDS011;57598;50.888;4.746;2023-04-01T11:26:42;83.35;;;76.45;;
21569;SDS011;57598;50.888;4.746;2023-04-01T11:29:33;82.07;;;75.25;;
21569;SDS011;57598;50.888;4.746;2023-04-01T11:32:17;83.10;;;76.30;;
21569;SDS011;57598;50.888;4.746;2023-04-01T11:34:57;82.20;;;75.32;;
21569;SDS011;57598;50.888;4.746;2023-04-01T11:37:37;85.13;;;78.10;;
21569;SDS011;57598;50.888;4.746;2023-04-01T11:40:14;75.78;;;69.28;;
21569;SDS011;57598;50.888;4.746;2023-04-01T11:42:54;78.53;;;72.03;;
21569;SDS011;57598;50.888;4.746;2023-04-01T11:45:31;73.95;;;67.65;;
21569;SDS011;57598;50.888;4.746;2023-04-01T11:48:13;75.38;;;69.05;;
21569;SDS011;57598;50.888;4.746;2023-04-01T11:50:54;78.78;;;72.55;;
21569;SDS011;57598;50.888;4.746;2023-04-01T11:53:34;75.38;;;69.28;;
21569;SDS011;57598;50.888;4.746;2023-04-01T11:56:13;79.28;;;72.97;;
21569;SDS011;57598;50.888;4.746;2023-04-01T12:24:48;68.95;;;63.05;;
21569;SDS011;57598;50.888;4.746;2023-04-01T12:28:03;68.60;;;62.85;;
21569;SDS011;57598;50.888;4.746;2023-04-01T12:31:42;65.45;;;59.85;;
21569;SDS011;57598;50.888;4.746;2023-04-01T12:34:39;69.55;;;63.70;;
21569;SDS011;57598;50.888;4.746;2023-04-01T12:37:28;70.65;;;64.68;;
21569;SDS011;57598;50.888;4.746;2023-04-01T12:40:13;67.40;;;61.58;;
21569;SDS011;57598;50.888;4.746;2023-04-01T12:43:05;66.68;;;60.97;;
21569;SDS011;57598;50.888;4.746;2023-04-01T12:45:55;71.75;;;65.65;;
21569;SDS011;57598;50.888;4.746;2023-04-01T13:07:56;72.18;;;66.07;;
21569;SDS011;57598;50.888;4.746;2023-04-01T13:10:44;66.32;;;60.53;;
21569;SDS011;57598;50.888;4.746;2023-04-01T13:16:23;66.88;;;60.78;;
21569;SDS011;57598;50.888;4.746;2023-04-01T13:18:56;67.07;;;61.28;;
21569;SDS011;57598;50.888;4.746;2023-04-01T13:21:30;65.05;;;59.35;;
21569;SDS011;57598;50.888;4.746;2023-04-01T13:24:06;67.65;;;61.83;;
21569;SDS011;57598;50.888;4.746;2023-04-01T13:26:44;71.13;;;65.13;;
21569;SDS011;57598;50.888;4.746;2023-04-01T13:29:21;64.03;;;58.42;;
21569;SDS011;57598;50.888;4.746;2023-04-01T13:31:59;67.63;;;61.87;;
21569;SDS011;57598;50.888;4.746;2023-04-01T13:34:39;66.45;;;60.65;;
21569;SDS011;57598;50.888;4.746;2023-04-01T13:37:22;65.70;;;60.00;;
21569;SDS011;57598;50.888;4.746;2023-04-01T13:40:00;65.95;;;60.22;;
21569;SDS011;57598;50.888;4.746;2023-04-01T13:42:41;67.82;;;62.08;;
21569;SDS011;57598;50.888;4.746;2023-04-01T13:45:14;64.22;;;58.53;;
21569;SDS011;57598;50.888;4.746;2023-04-01T13:50:57;64.07;;;57.97;;
21569;SDS011;57598;50.888;4.746;2023-04-01T13:53:44;66.00;;;60.20;;
21569;SDS011;57598;50.888;4.746;2023-04-01T13:56:24;63.38;;;57.78;;
21569;SDS011;57598;50.888;4.746;2023-04-01T14:05:22;62.50;;;56.90;;
21569;SDS011;57598;50.888;4.746;2023-04-01T14:08:02;66.30;;;60.50;;
21569;SDS011;57598;50.888;4.746;2023-04-01T14:10:35;62.85;;;57.28;;
21569;SDS011;57598;50.888;4.746;2023-04-01T14:13:07;60.10;;;54.80;;
21569;SDS011;57598;50.888;4.746;2023-04-01T14:21:58;62.05;;;56.55;;
21569;SDS011;57598;50.888;4.746;2023-04-01T14:31:08;65.88;;;60.17;;
21569;SDS011;57598;50.888;4.746;2023-04-01T14:33:58;63.40;;;57.90;;
21569;SDS011;57598;50.888;4.746;2023-04-01T14:36:37;66.78;;;60.97;;
21569;SDS011;57598;50.888;4.746;2023-04-01T15:02:51;65.80;;;60.17;;
21569;SDS011;57598;50.888;4.746;2023-04-01T15:05:37;68.18;;;62.47;;
21569;SDS011;57598;50.888;4.746;2023-04-01T15:08:20;65.82;;;60.45;;
21569;SDS011;57598;50.888;4.746;2023-04-01T15:10:53;69.88;;;64.35;;
21569;SDS011;57598;50.888;4.746;2023-04-01T15:13:48;65.30;;;59.60;;
21569;SDS011;57598;50.888;4.746;2023-04-01T15:16:41;64.57;;;58.97;;
21569;SDS011;57598;50.888;4.746;2023-04-01T15:19:20;65.95;;;60.25;;
21569;SDS011;57598;50.888;4.746;2023-04-01T15:21:59;65.53;;;59.83;;
21569;SDS011;57598;50.888;4.746;2023-04-01T15:24:46;63.72;;;58.13;;
21569;SDS011;57598;50.888;4.746;2023-04-01T15:27:16;66.15;;;60.45;;
21569;SDS011;57598;50.888;4.746;2023-04-01T15:30:14;68.28;;;62.67;;
21569;SDS011;57598;50.888;4.746;2023-04-01T15:32:56;64.28;;;58.70;;
21569;SDS011;57598;50.888;4.746;2023-04-01T15:52:54;57.83;;;52.53;;
21569;SDS011;57598;50.888;4.746;2023-04-01T15:55:42;57.00;;;51.70;;
21569;SDS011;57598;50.888;4.746;2023-04-01T15:58:49;58.80;;;53.30;;
21569;SDS011;57598;50.888;4.746;2023-04-01T16:01:44;57.83;;;52.33;;
21569;SDS011;57598;50.888;4.746;2023-04-01T16:04:51;58.13;;;52.72;;
21569;SDS011;57598;50.888;4.746;2023-04-01T16:11:33;56.97;;;51.60;;
21569;SDS011;57598;50.888;4.746;2023-04-01T16:14:28;55.63;;;50.22;;
21569;SDS011;57598;50.888;4.746;2023-04-01T16:17:18;56.10;;;50.80;;
21569;SDS011;57598;50.888;4.746;2023-04-01T16:22:52;56.10;;;50.80;;
21569;SDS011;57598;50.888;4.746;2023-04-01T16:25:43;54.50;;;49.30;;
21569;SDS011;57598;50.888;4.746;2023-04-01T16:28:19;57.03;;;51.53;;
21569;SDS011;57598;50.888;4.746;2023-04-01T16:30:55;59.20;;;53.10;;
21569;SDS011;57598;50.888;4.746;2023-04-01T16:33:28;58.95;;;52.95;;
21569;SDS011;57598;50.888;4.746;2023-04-01T16:36:07;57.30;;;51.40;;
21569;SDS011;57598;50.888;4.746;2023-04-01T16:38:48;60.47;;;54.13;;
21569;SDS011;57598;50.888;4.746;2023-04-01T16:47:57;57.70;;;51.80;;
21569;SDS011;57598;50.888;4.746;2023-04-01T16:51:15;58.67;;;52.78;;
21569;SDS011;57598;50.888;4.746;2023-04-01T16:53:45;58.92;;;52.92;;
21569;SDS011;57598;50.888;4.746;2023-04-01T16:56:20;56.80;;;50.90;;
21569;SDS011;57598;50.888;4.746;2023-04-01T16:58:55;57.75;;;51.95;;
21569;SDS011;57598;50.888;4.746;2023-04-01T17:01:31;57.45;;;51.60;;
21569;SDS011;57598;50.888;4.746;2023-04-01T17:04:07;55.70;;;50.00;;
21569;SDS011;57598;50.888;4.746;2023-04-01T17:06:44;56.20;;;50.40;;
21569;SDS011;57598;50.888;4.746;2023-04-01T17:09:28;54.30;;;48.67;;
21569;SDS011;57598;50.888;4.746;2023-04-01T17:12:08;56.53;;;50.78;;
21569;SDS011;57598;50.888;4.746;2023-04-01T17:14:45;55.33;;;49.60;;
21569;SDS011;57598;50.888;4.746;2023-04-01T17:17:23;53.30;;;47.60;;
21569;SDS011;57598;50.888;4.746;2023-04-01T17:20:20;53.13;;;47.45;;
21569;SDS011;57598;50.888;4.746;2023-04-01T17:26:48;54.47;;;48.58;;
21569;SDS011;57598;50.888;4.746;2023-04-01T17:30:37;53.85;;;48.08;;
21569;SDS011;57598;50.888;4.746;2023-04-01T17:37:19;49.60;;;43.92;;
21569;SDS011;57598;50.888;4.746;2023-04-01T17:40:48;50.97;;;45.38;;
21569;SDS011;57598;50.888;4.746;2023-04-01T17:44:11;51.28;;;45.65;;
21569;SDS011;57598;50.888;4.746;2023-04-01T17:48:06;56.22;;;50.33;;
21569;SDS011;57598;50.888;4.746;2023-04-01T17:54:41;53.72;;;48.03;;
21569;SDS011;57598;50.888;4.746;2023-04-01T18:00:17;53.90;;;47.33;;
21569;SDS011;57598;50.888;4.746;2023-04-01T18:02:54;55.35;;;48.90;;
21569;SDS011;57598;50.888;4.746;2023-04-01T18:06:01;55.28;;;49.28;;
21569;SDS011;57598;50.888;4.746;2023-04-01T18:08:43;56.97;;;50.88;;
21569;SDS011;57598;50.888;4.746;2023-04-01T18:11:38;53.45;;;47.55;;
21569;SDS011;57598;50.888;4.746;2023-04-01T18:17:12;53.20;;;46.60;;
21569;SDS011;57598;50.888;4.746;2023-04-01T18:19:51;54.13;;;48.22;;
21569;SDS011;57598;50.888;4.746;2023-04-01T18:22:29;54.00;;;47.00;;
21569;SDS011;57598;50.888;4.746;2023-04-01T18:25:12;56.38;;;50.22;;
21569;SDS011;57598;50.888;4.746;2023-04-01T18:27:47;54.50;;;48.60;;
21569;SDS011;57598;50.888;4.746;2023-04-01T18:30:21;52.90;;;45.90;;
21569;SDS011;57598;50.888;4.746;2023-04-01T18:32:55;54.30;;;48.15;;
21569;SDS011;57598;50.888;4.746;2023-04-01T18:35:29;54.45;;;47.13;;
21569;SDS011;57598;50.888;4.746;2023-04-01T18:40:40;53.50;;;46.20;;
21569;SDS011;57598;50.888;4.746;2023-04-01T18:43:16;53.70;;;46.53;;
21569;SDS011;57598;50.888;4.746;2023-04-01T18:45:51;53.53;;;45.55;;
21569;SDS011;57598;50.888;4.746;2023-04-01T18:48:33;53.80;;;47.40;;
21569;SDS011;57598;50.888;4.746;2023-04-01T18:51:13;56.05;;;48.63;;
21569;SDS011;57598;50.888;4.746;2023-04-01T18:53:48;53.45;;;46.75;;
21569;SDS011;57598;50.888;4.746;2023-04-01T18:56:23;54.55;;;46.40;;
21569;SDS011;57598;50.888;4.746;2023-04-01T18:59:00;55.05;;;47.58;;
21569;SDS011;57598;50.888;4.746;2023-04-01T19:01:35;54.05;;;47.00;;
21569;SDS011;57598;50.888;4.746;2023-04-01T20:58:24;108.43;;;99.22;;
